Lake Helen, Florida
Current Conditions -  °F | °C
As of 5:53 PM on Tuesday 25 Nov 2014 (Local Time) from KSFB Reporting Station
Overcast Overcast  
Wind Chill: 69°   Ceiling: 3900
Heat Index: 69°   Visibility: 10mi
Dew Point: 67°   Wind: 7mph
Humidity: 93%   Direction: 360°N
Pressure: 29.92"   Gusts: NA
Location:  28.98°N, 81.23°W
Report Text: KSFB 252253Z 36006KT 10SM BKN039 OVC070 21/19 A2992 RMK AO2 LTG DSNT ALQDS RAE41 SLP131 P0023 T02060194
Loading
Personal Weather Stations






























Interactive Weather Map New forecast layout! Learn more

10-Day Weather Forecast

Advertisements
Track Severe Weather on mobile